Rouyn Noranda Airport
CYUY : now visible

Airfield :











YOU CAN JOIN US ON...

 
LOGIN :

Register | Disclaimer

   EN    FR    IT 

 









Legend :    VFR   Marginal VFR   IFR   Intensive IFR   Very Intensive IFR
Visi :
Ceiling :
>= 8 km
>= 3000ft
5 to 8 km
1000 to 3000 ft
1500m to 5 km
500 to 1000 ft
800 to 1500m
200 to 500 ft
< 800m
< 200 ft
Symbols :   Thunderstorms  Fog  Heavy snow  Heavy precipitations  Wind > 20 kt






- Airport Elevation : 988 ft
- IATA code : YUY


CYUY - Rouyn Noranda

CURRENT METAR :
  • 241700Z 21011KT 200V290 15SM BKN064 BKN220 16/00 A3028 RMK SC6CI1 SLP264 DENSITY ALT 1000FT

EXPIRED METARs :
  • 241600Z 19010KT 150V240 15SM BKN065 14/M01 A3029 RMK SC7 SLP269
  • 241500Z 25008G16KT 15SM BKN065 14/M01 A3030 RMK SC5 SLP271

TAF TAF CYUY
Valid from the 24 at 18:00 until the 25 at 06:00 UTC


241740Z 2418/2506 20012KT P6SM BKN070
TEMPO 2418/2423 SCT070
FM242300 24007KT P6SM FEW070
BECMG 2500/2502 VRB03KT SKC RMK NXT FCST BY 250000Z
CZUL FIR / North America



MET'MAP, your aeronautical weather chart ! - Copyright ORBIFLY December 2007 - Disclaimer

ORBIFLY MET'MAP TEAM :

Programming & Development : Alexandra Zaïnal
Original concept : Baudouin d'Aumeries
Technical & hardware support : Manuel Goepfert
Assistance : Marc-Olivier Méhu

Contact : metmap@orbifly.com




SOURCES & CREDITS :

   NOAA       Earth
Advisory